Time;durP1;ratioP1;P1;durP2;ratioP2;P2;SDS_P1;SDS_P2;PMS_P1;PMS_P2;Temp;Humidity;BMP_temperature;BMP_pressure;BME280_temperature;BME280_humidity;BME280_pressure;Samples;Min_cycle;Max_cycle;Signal;HPM_P1;HPM_P2
2022/11/07 00:00:11;;;;;;;27.37;16.33;;;;;;;6.12;100.00;100723.67;1463452;88;21529;-77
2022/11/07 00:02:38;;;;;;;31.80;18.70;;;;;;;6.13;100.00;100728.00;1427177;91;21582;-77
2022/11/07 00:05:05;;;;;;;24.47;15.90;;;;;;;6.13;100.00;100725.37;1407498;91;21583;-77
2022/11/07 00:07:31;;;;;;;24.67;16.37;;;;;;;6.13;100.00;100724.50;1464050;88;21522;-77
2022/11/07 00:09:57;;;;;;;27.47;15.80;;;;;;;6.12;100.00;100726.30;1487632;88;21559;-77
2022/11/07 00:12:24;;;;;;;21.00;15.50;;;;;;;6.10;100.00;100730.84;1459106;88;21412;-76
2022/11/07 00:14:50;;;;;;;24.83;16.07;;;;;;;6.10;100.00;100729.05;1451489;89;21611;-78
2022/11/07 00:17:17;;;;;;;25.30;15.53;;;;;;;6.07;100.00;100737.16;1457328;89;21626;-77
2022/11/07 00:19:43;;;;;;;26.10;16.97;;;;;;;6.04;100.00;100737.84;1452682;89;21567;-76
2022/11/07 00:22:09;;;;;;;27.30;16.27;;;;;;;6.03;100.00;100747.99;1455252;89;22211;-76
2022/11/07 00:24:35;;;;;;;26.67;17.87;;;;;;;6.01;100.00;100745.94;1462511;88;21420;-76
2022/11/07 00:27:01;;;;;;;29.67;16.17;;;;;;;5.97;100.00;100741.87;1455177;89;21384;-75
2022/11/07 00:29:28;;;;;;;23.73;15.13;;;;;;;5.93;100.00;100744.30;1455911;88;21500;-76
2022/11/07 00:31:54;;;;;;;22.77;15.93;;;;;;;5.87;100.00;100742.50;1470990;88;22469;-76
2022/11/07 00:34:20;;;;;;;23.37;14.43;;;;;;;5.84;100.00;100745.35;1479228;88;21559;-76
2022/11/07 00:36:46;;;;;;;25.17;15.43;;;;;;;5.81;100.00;100746.88;1468222;88;21346;-78
2022/11/07 00:39:12;;;;;;;25.30;15.80;;;;;;;5.81;100.00;100745.57;1460363;89;22335;-78
2022/11/07 00:41:38;;;;;;;22.50;16.50;;;;;;;5.81;100.00;100745.57;1474055;88;21368;-78
2022/11/07 00:44:05;;;;;;;30.60;20.43;;;;;;;5.82;100.00;100743.30;1474370;88;21427;-77
2022/11/07 00:46:31;;;;;;;30.73;19.03;;;;;;;5.80;100.00;100742.55;1464467;88;21559;-78
2022/11/07 00:48:57;;;;;;;27.03;18.20;;;;;;;5.73;100.00;100737.39;1478370;88;21745;-77
2022/11/07 00:51:26;;;;;;;33.33;20.63;;;;;;;5.68;100.00;100738.19;1464833;89;21414;-77
2022/11/07 00:53:53;;;;;;;28.90;18.90;;;;;;;5.63;100.00;100738.98;1461883;88;22409;-77
2022/11/07 00:56:23;;;;;;;24.30;15.97;;;;;;;5.60;100.00;100741.34;1475267;86;21493;-77
2022/11/07 00:58:55;;;;;;;25.10;17.07;;;;;;;5.56;100.00;100728.55;1479908;88;22351;-77
2022/11/07 01:01:26;;;;;;;28.23;15.83;;;;;;;5.54;100.00;100731.27;1460394;88;21389;-77
2022/11/07 01:06:41;;;;;;;24.20;17.50;;;;;;;5.53;100.00;100719.58;1479765;88;21486;-76
2022/11/07 01:09:11;;;;;;;31.03;20.47;;;;;;;5.45;100.00;100729.78;1488907;88;22133;-76
2022/11/07 01:11:40;;;;;;;27.22;19.35;;;;;;;5.38;100.00;100728.90;1469142;88;21435;-76
2022/11/07 01:14:08;;;;;;;28.77;19.77;;;;;;;5.34;100.00;100730.04;1477412;88;21593;-76
2022/11/07 01:16:34;;;;;;;30.27;18.77;;;;;;;5.31;100.00;100724.17;1462471;88;21406;-77
2022/11/07 01:19:02;;;;;;;34.10;19.83;;;;;;;5.27;100.00;100723.55;1476426;88;21471;-76
2022/11/07 01:21:29;;;;;;;34.23;20.43;;;;;;;5.25;100.00;100721.50;1481175;88;21545;-77
2022/11/07 01:23:55;;;;;;;32.70;21.03;;;;;;;5.26;100.00;100724.95;1479634;88;21516;-77
2022/11/07 01:26:21;;;;;;;34.63;21.93;;;;;;;5.25;100.00;100716.25;1479029;88;21721;-77
2022/11/07 01:28:47;;;;;;;37.23;22.07;;;;;;;5.24;100.00;100711.95;1471298;88;21515;-76
2022/11/07 01:31:16;;;;;;;37.53;20.60;;;;;;;5.20;100.00;100710.47;1463759;88;21589;-76
2022/11/07 01:33:42;;;;;;;32.37;18.40;;;;;;;5.11;100.00;100712.42;1467268;88;21523;-77
2022/11/07 01:36:12;;;;;;;34.10;20.27;;;;;;;5.01;100.00;100707.45;1478167;88;22293;-77
2022/11/07 01:38:42;;;;;;;34.83;19.15;;;;;;;4.97;100.00;100706.80;1473006;88;21427;-76
2022/11/07 01:41:22;;;;;;;28.73;18.37;;;;;;;4.96;100.00;100703.34;1474738;88;21546;-77
2022/11/07 01:44:09;;;;;;;35.45;21.85;;;;;;;4.95;100.00;100709.55;1472038;88;22577;-77
2022/11/07 01:46:40;;;;;;;36.13;21.77;;;;;;;4.94;100.00;100707.84;1426035;91;21443;-79
2022/11/07 01:49:30;;;;;;;34.88;21.97;;;;;;;4.91;100.00;100705.44;1418099;92;21605;-79
2022/11/07 01:52:16;;;;;;;40.60;23.13;;;;;;;4.89;100.00;100698.16;1440962;88;22325;-79
2022/11/07 01:55:00;;;;;;;33.57;19.23;;;;;;;4.84;100.00;100700.25;1459497;88;21538;-79
2022/11/07 01:57:34;;;;;;;31.07;19.33;;;;;;;4.80;100.00;100705.80;1437831;88;21648;-78
2022/11/07 02:00:05;;;;;;;42.97;18.83;;;;;;;4.76;100.00;100694.69;1463530;88;21441;-79
2022/11/07 02:02:32;;;;;;;;;;;;;;;4.73;100.00;100697.52;1463614;88;21472;-79
2022/11/07 02:05:01;;;;;;;29.53;18.93;;;;;;;4.71;100.00;100702.02;1463243;88;20284;-79
2022/11/07 02:07:28;;;;;;;29.73;18.47;;;;;;;4.69;100.00;100705.20;1467680;88;21411;-79
2022/11/07 02:09:55;;;;;;;32.73;19.70;;;;;;;4.67;100.00;100707.11;1470856;88;21464;-79
2022/11/07 02:12:25;;;;;;;29.53;18.93;;;;;;;4.66;100.00;100707.59;1472733;88;21582;-79
2022/11/07 02:14:51;;;;;;;29.60;17.80;;;;;;;4.65;100.00;100698.50;1474931;88;21495;-79
2022/11/07 02:17:17;;;;;;;29.10;18.93;;;;;;;4.60;100.00;100692.72;1472136;88;21419;-79
2022/11/07 02:19:50;;;;;;;38.63;19.77;;;;;;;4.58;100.00;100693.31;1462584;88;21450;-79
2022/11/07 02:22:55;;;;;;;27.20;19.20;;;;;;;4.55;100.00;100699.59;1469861;88;22398;-79
2022/11/07 02:25:22;;;;;;;26.83;17.67;;;;;;;4.46;100.00;100699.73;1464257;88;21376;-79
2022/11/07 02:27:53;;;;;;;29.13;17.07;;;;;;;4.41;100.00;100697.88;1465379;88;21576;-79
2022/11/07 02:30:25;;;;;;;28.27;14.73;;;;;;;4.38;100.00;100698.56;1475310;88;22140;-78
2022/11/07 02:32:51;;;;;;;30.97;15.80;;;;;;;4.37;100.00;100697.70;1488257;88;21472;-79
2022/11/07 02:35:47;;;;;;;26.67;15.40;;;;;;;4.37;100.00;100693.77;1483481;88;21412;-78
2022/11/07 02:38:19;;;;;;;21.70;12.67;;;;;;;4.37;100.00;100691.15;1467464;88;22395;-78
2022/11/07 02:41:06;;;;;;;19.63;14.07;;;;;;;4.39;100.00;100694.52;1472108;88;21544;-78
2022/11/07 02:43:35;;;;;;;17.27;12.23;;;;;;;4.40;100.00;100702.77;1416781;92;21515;-79
2022/11/07 02:46:06;;;;;;;20.17;13.53;;;;;;;4.41;100.00;100703.12;1452674;88;21603;-80
2022/11/07 02:48:46;;;;;;;19.85;12.78;;;;;;;4.39;100.00;100698.92;1477881;88;22250;-80
2022/11/07 02:51:12;;;;;;;21.37;14.47;;;;;;;4.46;100.00;100711.98;1475729;88;21976;-80
2022/11/07 02:53:38;;;;;;;21.57;15.00;;;;;;;4.49;100.00;100712.64;1484186;88;21464;-79
2022/11/07 02:56:06;;;;;;;26.10;13.93;;;;;;;4.58;100.00;100714.28;1420648;91;22216;-78
2022/11/07 02:58:33;;;;;;;22.97;13.47;;;;;;;4.63;100.00;100704.30;1426426;91;21405;-77
2022/11/07 03:01:05;;;;;;;23.77;13.93;;;;;;;4.69;100.00;100711.75;1457723;88;21478;-78
2022/11/07 03:03:34;;;;;;;22.57;13.87;;;;;;;4.75;100.00;100711.37;1467362;88;21406;-79
2022/11/07 03:06:01;;;;;;;20.50;11.93;;;;;;;4.82;100.00;100707.86;1446932;90;21796;-78
2022/11/07 03:08:28;;;;;;;27.83;14.80;;;;;;;4.90;100.00;100714.73;1469384;88;21470;-78
2022/11/07 03:10:54;;;;;;;27.83;14.17;;;;;;;4.94;100.00;100713.09;1474052;88;22066;-77
2022/11/07 03:13:20;;;;;;;27.60;13.97;;;;;;;5.01;100.00;100725.82;1471259;88;21405;-78
2022/11/07 03:15:46;;;;;;;28.77;13.90;;;;;;;5.07;100.00;100728.02;1473348;88;21485;-78
2022/11/07 03:18:12;;;;;;;25.13;14.60;;;;;;;5.14;100.00;100724.85;1473258;88;22617;-78
2022/11/07 03:20:38;;;;;;;20.53;12.10;;;;;;;5.23;100.00;100725.17;1453515;88;22207;-78
2022/11/07 03:23:04;;;;;;;23.07;13.43;;;;;;;5.33;100.00;100731.47;1423892;91;21428;-80
2022/11/07 03:25:30;;;;;;;25.40;15.67;;;;;;;5.39;100.00;100731.87;1429142;91;21608;-79
2022/11/07 03:27:56;;;;;;;27.33;15.00;;;;;;;5.51;100.00;100731.97;1470797;88;22344;-81
2022/11/07 03:30:22;;;;;;;30.23;14.73;;;;;;;5.63;100.00;100735.03;1467288;88;21413;-80
2022/11/07 03:32:52;;;;;;;23.67;15.47;;;;;;;5.70;100.00;100737.61;1473356;88;21560;-80
2022/11/07 03:35:19;;;;;;;23.57;14.17;;;;;;;5.78;100.00;100742.30;1471839;88;21575;-78
2022/11/07 03:37:46;;;;;;;24.93;15.53;;;;;;;5.80;100.00;100734.68;1471579;88;21516;-81
2022/11/07 03:40:13;;;;;;;25.10;14.73;;;;;;;5.81;100.00;100731.13;1480209;88;21449;-81
2022/11/07 03:42:41;;;;;;;26.73;13.97;;;;;;;5.84;100.00;100732.22;1426665;91;22900;-81
2022/11/07 03:45:09;;;;;;;22.23;12.97;;;;;;;5.88;100.00;100724.47;1418395;91;22389;-79
2022/11/07 03:47:37;;;;;;;21.80;13.93;;;;;;;5.94;100.00;100731.58;1421297;91;21524;-79
2022/11/07 03:50:05;;;;;;;24.30;13.13;;;;;;;5.91;100.00;100726.04;1439830;91;21457;-79
2022/11/07 03:52:31;;;;;;;24.80;15.00;;;;;;;5.92;100.00;100734.75;1425556;90;21472;-79
2022/11/07 03:54:57;;;;;;;31.63;15.67;;;;;;;5.92;100.00;100726.88;1439705;90;22415;-81
2022/11/07 03:57:23;;;;;;;27.10;15.17;;;;;;;5.93;100.00;100728.54;1445843;90;21385;-81
2022/11/07 03:59:49;;;;;;;27.83;14.63;;;;;;;5.97;100.00;100731.36;1448729;88;21368;-81
2022/11/07 04:02:16;;;;;;;23.43;14.97;;;;;;;5.99;100.00;100731.61;1476273;88;21390;-81
2022/11/07 04:04:42;;;;;;;23.50;13.47;;;;;;;6.05;100.00;100732.96;1476321;88;21376;-81
2022/11/07 04:07:08;;;;;;;23.80;13.37;;;;;;;6.13;100.00;100730.62;1425148;91;21383;-80
2022/11/07 04:09:34;;;;;;;29.77;15.87;;;;;;;6.16;100.00;100722.52;1424369;91;22619;-81
2022/11/07 04:17:30;;;;;;;26.07;13.43;;;;;;;6.36;100.00;100724.13;1425768;92;21678;-81
2022/11/07 04:19:56;;;;;;;22.43;14.03;;;;;;;6.41;100.00;100737.30;1420781;92;21680;-80
2022/11/07 04:22:25;;;;;;;23.00;13.80;;;;;;;6.45;100.00;100737.45;1402094;92;21531;-81
2022/11/07 04:24:51;;;;;;;23.47;13.13;;;;;;;6.49;100.00;100738.06;1447177;90;22323;-80
2022/11/07 04:30:20;;;;;;;24.07;13.60;;;;;;;6.51;100.00;100742.73;1427131;91;21531;-79
2022/11/07 04:32:50;;;;;;;23.07;13.23;;;;;;;6.52;100.00;100743.92;1474865;88;21449;-79
2022/11/07 04:35:16;;;;;;;23.37;12.50;;;;;;;6.51;100.00;100744.05;1467739;88;21479;-79
2022/11/07 04:37:43;;;;;;;18.03;11.23;;;;;;;6.52;100.00;100742.61;1464822;88;21472;-79
2022/11/07 04:40:10;;;;;;;20.97;11.83;;;;;;;6.57;100.00;100743.59;1473745;88;21419;-80
2022/11/07 04:42:38;;;;;;;24.80;13.77;;;;;;;6.63;100.00;100740.50;1424528;91;21668;-80
2022/11/07 04:45:06;;;;;;;38.63;22.93;;;;;;;6.72;100.00;100737.66;1445677;91;21620;-80
2022/11/07 04:47:32;;;;;;;42.40;25.30;;;;;;;6.80;100.00;100746.30;1433264;91;21724;-80
2022/11/07 04:49:58;;;;;;;57.87;28.10;;;;;;;6.87;100.00;100748.81;1469610;88;22129;-80
2022/11/07 04:52:24;;;;;;;61.90;33.60;;;;;;;6.90;100.00;100738.89;1478151;88;21494;-79
2022/11/07 04:54:50;;;;;;;55.30;28.93;;;;;;;6.91;100.00;100744.53;1474199;88;21397;-80
2022/11/07 04:57:16;;;;;;;57.63;29.63;;;;;;;6.94;100.00;100743.47;1469189;88;21449;-79
2022/11/07 04:59:42;;;;;;;56.10;29.97;;;;;;;7.00;100.00;100745.63;1463203;88;21454;-79
2022/11/07 05:02:11;;;;;;;55.43;28.77;;;;;;;7.05;100.00;100751.84;1453050;88;21483;-79
2022/11/07 05:04:39;;;;;;;54.77;28.57;;;;;;;7.09;100.00;100755.45;1466925;88;21560;-80
2022/11/07 05:07:07;;;;;;;53.30;29.67;;;;;;;7.12;100.00;100748.63;1473123;88;22358;-80
2022/11/07 05:09:34;;;;;;;53.27;30.90;;;;;;;7.18;100.00;100744.69;1476477;88;22314;-80
2022/11/07 05:12:01;;;;;;;60.33;29.70;;;;;;;7.23;100.00;100753.91;1475080;88;22301;-80
2022/11/07 05:14:30;;;;;;;54.73;31.67;;;;;;;7.28;100.00;100747.44;1421101;91;21368;-81
2022/11/07 05:16:58;;;;;;;63.20;32.93;;;;;;;7.34;100.00;100754.90;1481297;88;21347;-79
2022/11/07 05:19:25;;;;;;;54.43;31.37;;;;;;;7.34;100.00;100747.00;1487063;88;22338;-79
2022/11/07 05:23:10;;;;;;;48.37;25.47;;;;;;;7.33;100.00;100750.56;1481220;88;21549;-80
2022/11/07 05:24:19;;;;;;;50.13;27.20;;;;;;;7.34;100.00;100743.88;1471539;88;22343;-79
2022/11/07 05:26:45;;;;;;;39.33;21.73;;;;;;;7.38;100.00;100744.47;1484261;88;21457;-80
2022/11/07 05:29:11;;;;;;;33.53;19.87;;;;;;;7.41;100.00;100749.50;1480994;88;21501;-80
2022/11/07 05:31:37;;;;;;;44.67;23.17;;;;;;;7.45;100.00;100755.73;1474568;88;21547;-80
2022/11/07 05:34:03;;;;;;;39.27;22.20;;;;;;;7.48;100.00;100752.48;1473503;88;21419;-81
2022/11/07 05:36:29;;;;;;;45.23;21.80;;;;;;;7.51;100.00;100754.42;1468705;88;21442;-80
2022/11/07 05:38:55;;;;;;;44.53;24.97;;;;;;;7.54;100.00;100762.08;1479125;86;22299;-81
2022/11/07 05:41:21;;;;;;;53.73;28.60;;;;;;;7.54;100.00;100767.80;1489284;88;21508;-81
2022/11/07 05:43:48;;;;;;;52.37;25.33;;;;;;;7.54;100.00;100766.03;1474300;88;21412;-81
2022/11/07 05:46:14;;;;;;;46.90;24.57;;;;;;;7.51;100.00;100766.27;1467799;88;21440;-80
2022/11/07 05:48:40;;;;;;;50.27;22.43;;;;;;;7.49;100.00;100768.18;1464370;88;22369;-79
2022/11/07 05:51:07;;;;;;;44.03;24.47;;;;;;;7.48;100.00;100771.78;1465955;88;21471;-79
2022/11/07 05:53:34;;;;;;;48.17;22.17;;;;;;;7.52;100.00;100771.89;1462260;88;22285;-79
2022/11/07 05:56:00;;;;;;;41.50;22.97;;;;;;;7.56;100.00;100772.00;1478421;88;21382;-79
2022/11/07 05:58:26;;;;;;;54.07;24.67;;;;;;;7.59;100.00;100769.13;1470632;88;21508;-80
2022/11/07 06:00:52;;;;;;;60.67;27.23;;;;;;;7.59;100.00;100769.61;1426498;91;21420;-78
2022/11/07 06:03:21;;;;;;;61.47;28.87;;;;;;;7.59;100.00;100778.34;1456232;88;21488;-79
2022/11/07 06:05:47;;;;;;;89.73;37.20;;;;;;;7.57;100.00;100784.23;1488176;88;22581;-79
2022/11/07 06:08:14;;;;;;;71.27;33.93;;;;;;;7.56;100.00;100790.92;1477816;88;21456;-78
2022/11/07 06:10:41;;;;;;;76.27;33.60;;;;;;;7.52;100.00;100789.01;1481060;87;21596;-79
2022/11/07 06:13:13;;;;;;;69.80;31.67;;;;;;;7.52;100.00;100795.59;1482191;88;21678;-79
2022/11/07 06:15:41;;;;;;;66.23;31.20;;;;;;;7.57;100.00;100805.30;1486502;88;21434;-79
2022/11/07 06:18:14;;;;;;;86.53;31.43;;;;;;;7.62;100.00;100797.89;1424765;91;22111;-79
2022/11/07 06:20:40;;;;;;;67.83;31.93;;;;;;;7.66;100.00;100801.95;1432853;91;21675;-79
2022/11/07 06:23:06;;;;;;;64.10;29.83;;;;;;;7.76;100.00;100806.48;1417975;91;21390;-79
2022/11/07 06:25:33;;;;;;;71.27;34.57;;;;;;;7.84;100.00;100797.52;1425604;91;21470;-78
2022/11/07 06:28:02;;;;;;;65.30;31.67;;;;;;;7.92;100.00;100805.66;1445384;89;21442;-80
2022/11/07 06:30:29;;;;;;;64.27;31.00;;;;;;;7.99;100.00;100805.52;1471798;88;21537;-81
2022/11/07 06:33:05;;;;;;;67.20;33.07;;;;;;;8.07;100.00;100808.87;1471706;88;21617;-79
2022/11/07 06:35:33;;;;;;;68.93;33.70;;;;;;;8.11;100.00;100811.15;1477378;88;21500;-79
2022/11/07 06:38:09;;;;;;;68.83;32.10;;;;;;;8.14;100.00;100816.17;1467264;88;21486;-80
2022/11/07 06:40:36;;;;;;;70.53;34.23;;;;;;;8.20;100.00;100810.89;1469881;88;21486;-79
2022/11/07 06:43:16;;;;;;;67.30;34.77;;;;;;;8.27;100.00;100812.55;1471700;88;22379;-80
2022/11/07 06:45:43;;;;;;;74.13;37.83;;;;;;;8.32;100.00;100810.39;1471210;88;22313;-80
2022/11/07 06:48:11;;;;;;;63.07;34.73;;;;;;;8.40;100.00;100813.73;1472043;88;22550;-78
2022/11/07 06:50:38;;;;;;;65.37;33.90;;;;;;;8.48;100.00;100805.55;1487852;88;21898;-76
2022/11/07 06:53:07;;;;;;;74.43;37.70;;;;;;;8.54;100.00;100798.94;1475861;88;22515;-77
2022/11/07 06:55:35;;;;;;;65.00;35.77;;;;;;;8.62;100.00;100803.60;1467147;88;21604;-77
2022/11/07 06:58:02;;;;;;;67.20;36.80;;;;;;;8.70;100.00;100810.41;1468858;88;21567;-76
2022/11/07 07:00:31;;;;;;;68.43;38.67;;;;;;;8.77;100.00;100807.61;1476744;88;21693;-77
2022/11/07 07:02:57;;;;;;;65.03;33.33;;;;;;;8.82;100.00;100814.67;1472177;88;21619;-76
2022/11/07 07:05:23;;;;;;;64.40;36.03;;;;;;;8.87;100.00;100816.95;1466891;88;22553;-77
2022/11/07 07:07:49;;;;;;;58.63;34.53;;;;;;;8.90;100.00;100816.69;1466799;88;21620;-77
2022/11/07 07:10:16;;;;;;;65.83;32.67;;;;;;;8.97;100.00;100818.67;1469927;88;21651;-77
2022/11/07 07:12:43;;;;;;;54.80;30.63;;;;;;;9.04;100.00;100813.25;1475421;88;21382;-77
2022/11/07 07:15:09;;;;;;;52.80;31.27;;;;;;;9.09;100.00;100814.66;1475948;88;22450;-77
2022/11/07 07:17:35;;;;;;;58.90;34.47;;;;;;;9.13;100.00;100805.53;1476302;88;21470;-75
2022/11/07 07:20:04;;;;;;;68.13;37.13;;;;;;;9.21;100.00;100800.44;1476305;87;21419;-77
2022/11/07 07:22:30;;;;;;;62.43;32.13;;;;;;;9.32;100.00;100802.16;1467402;88;21448;-76
2022/11/07 07:24:56;;;;;;;63.37;36.73;;;;;;;9.39;100.00;100799.36;1464568;88;21529;-77
2022/11/07 07:27:22;;;;;;;70.60;35.87;;;;;;;9.43;100.00;100801.59;1464946;88;21604;-77
2022/11/07 07:29:49;;;;;;;51.13;29.10;;;;;;;9.52;100.00;100809.70;1470486;88;21441;-78
2022/11/07 07:32:15;;;;;;;49.13;27.67;;;;;;;9.61;100.00;100807.13;1463784;88;22595;-76
2022/11/07 07:34:41;;;;;;;50.73;26.70;;;;;;;9.71;100.00;100801.87;1465547;88;21455;-75
2022/11/07 07:37:08;;;;;;;57.00;28.03;;;;;;;9.77;100.00;100798.69;1462165;88;21478;-77
2022/11/07 07:39:34;;;;;;;57.53;29.97;;;;;;;9.85;100.00;100794.90;1470052;87;21442;-77
2022/11/07 07:42:00;;;;;;;48.57;28.13;;;;;;;9.92;100.00;100801.80;1470622;87;21367;-77
2022/11/07 07:44:26;;;;;;;54.63;31.57;;;;;;;10.02;100.00;100808.46;1478012;87;21463;-77
2022/11/07 07:46:52;;;;;;;55.00;27.47;;;;;;;10.10;100.00;100807.31;1450763;89;21443;-78
2022/11/07 07:49:18;;;;;;;47.70;29.07;;;;;;;10.17;100.00;100799.99;1450811;89;21509;-78
2022/11/07 07:51:44;;;;;;;51.10;29.57;;;;;;;10.28;100.00;100799.58;1451735;89;22360;-77
2022/11/07 07:54:11;;;;;;;43.97;27.47;;;;;;;10.40;100.00;100802.44;1431441;90;21436;-77
2022/11/07 07:56:37;;;;;;;47.47;28.13;;;;;;;10.50;100.00;100790.53;1434554;90;21766;-77
2022/11/07 07:59:03;;;;;;;42.47;27.77;;;;;;;10.59;100.00;100786.59;1425515;90;22538;-77
2022/11/07 08:01:29;;;;;;;48.07;29.23;;;;;;;10.65;100.00;100789.16;1426493;90;21584;-77
2022/11/07 08:03:55;;;;;;;52.13;29.67;;;;;;;10.64;100.00;100788.80;1430792;91;21717;-77
2022/11/07 08:06:21;;;;;;;44.47;26.27;;;;;;;10.67;100.00;100794.30;1433082;90;22015;-76
2022/11/07 08:08:47;;;;;;;49.73;30.27;;;;;;;10.68;100.00;100792.86;1422602;91;22347;-77
2022/11/07 08:11:13;;;;;;;49.70;28.57;;;;;;;10.69;100.00;100797.66;1424184;91;21437;-77
2022/11/07 08:13:39;;;;;;;41.93;27.57;;;;;;;10.66;100.00;100790.83;1454123;89;21539;-77
2022/11/07 08:16:06;;;;;;;41.03;26.93;;;;;;;10.67;100.00;100792.98;1459543;89;21523;-78
2022/11/07 08:18:35;;;;;;;44.63;29.37;;;;;;;10.68;100.00;100807.91;1453991;89;21493;-77
2022/11/07 08:21:01;;;;;;;42.40;28.30;;;;;;;10.66;100.00;100801.41;1437589;90;21553;-77
2022/11/07 08:23:27;;;;;;;50.53;30.27;;;;;;;10.68;100.00;100799.97;1425795;91;21758;-78
2022/11/07 08:25:56;;;;;;;51.63;32.17;;;;;;;10.61;100.00;100804.95;1452677;89;21457;-77
2022/11/07 08:28:26;;;;;;;50.53;30.13;;;;;;;10.56;100.00;100801.42;1430107;90;21494;-77
2022/11/07 08:30:59;;;;;;;56.33;32.80;;;;;;;10.61;100.00;100802.31;1424485;90;22092;-77
2022/11/07 08:33:26;;;;;;;43.27;26.40;;;;;;;10.64;100.00;100804.68;1434542;90;21642;-77
2022/11/07 08:36:00;;;;;;;45.70;28.87;;;;;;;10.69;100.00;100803.78;1428308;90;21665;-77
2022/11/07 08:38:28;;;;;;;40.57;26.60;;;;;;;10.73;100.00;100798.58;1449545;89;21471;-77
2022/11/07 08:40:56;;;;;;;49.37;31.40;;;;;;;10.76;100.00;100795.65;1474136;88;21516;-77
2022/11/07 08:43:22;;;;;;;52.60;32.83;;;;;;;10.80;100.00;100793.55;1467496;88;21398;-78
2022/11/07 08:45:49;;;;;;;51.77;32.77;;;;;;;10.82;100.00;100795.08;1463243;88;21493;-77
2022/11/07 08:48:16;;;;;;;52.50;31.93;;;;;;;10.81;100.00;100800.02;1447278;88;21426;-77
2022/11/07 08:50:43;;;;;;;46.20;29.40;;;;;;;10.81;100.00;100802.66;1465409;88;22581;-85
2022/11/07 08:53:10;;;;;;;46.33;29.13;;;;;;;10.83;100.00;100811.30;1464046;88;21529;-86
2022/11/07 08:55:36;;;;;;;44.73;27.20;;;;;;;10.79;100.00;100808.60;1470195;88;21603;-87
2022/11/07 08:58:06;;;;;;;40.10;25.47;;;;;;;10.77;100.00;100815.01;1466124;88;21506;-84
2022/11/07 09:00:34;;;;;;;38.83;26.13;;;;;;;10.74;100.00;100809.50;1473072;88;22491;-86
2022/11/07 09:03:03;;;;;;;47.20;28.47;;;;;;;10.79;100.00;100810.42;1472980;88;21485;-87
2022/11/07 09:05:30;;;;;;;52.10;28.80;;;;;;;10.79;100.00;100816.55;1463139;88;21656;-87
2022/11/07 09:07:56;;;;;;;48.60;29.63;;;;;;;10.79;100.00;100821.84;1473428;88;21455;-86
2022/11/07 09:10:23;;;;;;;50.17;29.93;;;;;;;10.79;100.00;100823.66;1462642;88;22395;-88
2022/11/07 09:12:50;;;;;;;42.73;26.30;;;;;;;10.81;100.00;100827.81;1466788;88;21692;-87
2022/11/07 09:15:17;;;;;;;44.87;27.53;;;;;;;10.82;100.00;100816.76;1463157;88;21471;-85
2022/11/07 09:17:45;;;;;;;44.50;26.93;;;;;;;10.87;100.00;100825.59;1446229;88;21642;-81
2022/11/07 09:20:15;;;;;;;43.53;27.23;;;;;;;10.89;100.00;100825.80;1465972;88;21693;-86
2022/11/07 09:22:41;;;;;;;45.63;29.47;;;;;;;10.90;100.00;100829.28;1465091;88;21462;-86
2022/11/07 09:25:08;;;;;;;50.13;30.40;;;;;;;10.90;100.00;100822.16;1472262;88;22315;-93
2022/11/07 09:27:35;;;;;;;53.10;31.87;;;;;;;10.92;100.00;100831.31;1466419;88;21670;-89
2022/11/07 09:30:03;;;;;;;49.43;30.70;;;;;;;10.89;100.00;100831.59;1474433;88;21471;-90
2022/11/07 09:32:29;;;;;;;48.47;31.20;;;;;;;10.91;100.00;100833.13;1465405;88;21522;-87
2022/11/07 09:34:55;;;;;;;43.53;28.97;;;;;;;10.91;100.00;100831.80;1464866;88;21522;-89
2022/11/07 09:37:21;;;;;;;48.20;28.87;;;;;;;10.91;100.00;100838.42;1456151;88;21442;-91
2022/11/07 09:39:48;;;;;;;52.83;32.93;;;;;;;10.92;100.00;100836.61;1465793;87;21465;-87
2022/11/07 09:42:28;;;;;;;54.47;31.67;;;;;;;10.97;100.00;100841.00;1457769;88;21567;-91
2022/11/07 09:44:58;;;;;;;45.60;29.42;;;;;;;11.02;100.00;100837.45;1552477;88;21575;-91
2022/11/07 09:47:44;;;;;;;35.73;25.10;;;;;;;11.03;100.00;100838.62;1470321;88;21624;-90
2022/11/07 09:50:27;;;;;;;40.33;26.03;;;;;;;11.06;100.00;100833.03;1474362;87;22490;-89
2022/11/07 09:53:02;;;;;;;35.30;24.80;;;;;;;11.07;100.00;100833.87;1459224;89;21488;-91
2022/11/07 09:55:37;;;;;;;39.20;24.63;;;;;;;11.08;100.00;100839.53;1449277;89;22126;-91
2022/11/07 09:58:11;;;;;;;39.10;26.10;;;;;;;11.07;100.00;100840.49;1434634;90;21494;-89
2022/11/07 10:00:37;;;;;;;38.37;25.33;;;;;;;11.06;100.00;100841.48;1386326;91;21553;-87
2022/11/07 10:03:03;;;;;;;38.00;23.70;;;;;;;11.07;100.00;100838.67;1426756;91;21517;-88
2022/11/07 10:05:54;;;;;;;31.13;22.00;;;;;;;11.11;100.00;100837.92;1428425;91;21428;-90
2022/11/07 10:08:43;;;;;;;40.28;23.10;;;;;;;11.14;100.00;100844.76;1417994;91;21692;-89
2022/11/07 10:11:17;;;;;;;33.03;23.57;;;;;;;11.16;100.00;100842.28;1419431;91;22515;-91
2022/11/07 10:14:04;;;;;;;35.43;21.50;;;;;;;11.20;100.00;100841.05;1429224;91;21464;-87
2022/11/07 10:16:56;;;;;;;31.70;21.37;;;;;;;11.18;100.00;100842.16;1530846;88;22344;-90
2022/11/07 10:19:43;;;;;;;29.60;23.07;;;;;;;11.17;100.00;100832.55;1455395;92;22828;-86
2022/11/07 10:22:50;;;;;;;29.23;20.50;;;;;;;11.13;100.00;100825.35;1412865;92;21685;-88
2022/11/07 10:25:25;;;;;;;31.10;22.20;;;;;;;11.13;100.00;100828.50;1413195;92;21488;-89
2022/11/07 10:28:09;;;;;;;28.07;19.60;;;;;;;11.13;100.00;100821.38;1493160;91;21371;-86
2022/11/07 10:30:35;;;;;;;31.83;24.63;;;;;;;11.14;100.00;100817.77;1360594;91;21408;-89
2022/11/07 10:33:23;;;;;;;28.37;22.00;;;;;;;11.13;100.00;100814.75;1356309;91;21465;-88
2022/11/07 10:36:09;;;;;;;26.23;20.70;;;;;;;11.09;100.00;100814.70;1422133;92;21606;-89
2022/11/07 10:38:40;;;;;;;31.53;22.97;;;;;;;11.06;100.00;100812.34;1420020;92;22897;-87
2022/11/07 10:41:20;;;;;;;26.17;20.00;;;;;;;11.07;100.00;100816.16;1403935;92;21607;-81
2022/11/07 10:43:51;;;;;;;30.47;21.00;;;;;;;11.06;100.00;100814.98;1461652;89;21583;-81
2022/11/07 10:46:42;;;;;;;29.47;22.00;;;;;;;11.11;100.00;100818.06;1460819;88;22315;-81
2022/11/07 10:49:25;;;;;;;31.70;22.75;;;;;;;11.10;100.00;100819.02;1462167;88;22213;-81
2022/11/07 10:51:53;;;;;;;27.30;19.37;;;;;;;11.12;100.00;100815.75;1469931;88;21359;-81
2022/11/07 10:54:28;;;;;;;26.70;22.07;;;;;;;11.15;100.00;100816.78;1468512;88;21449;-80
2022/11/07 10:57:18;;;;;;;30.47;20.30;;;;;;;11.13;100.00;100820.05;1469894;88;22374;-80
2022/11/07 10:59:52;;;;;;;29.87;22.23;;;;;;;11.09;100.00;100816.52;1404384;91;21605;-81
2022/11/07 11:02:26;;;;;;;29.00;21.77;;;;;;;11.03;100.00;100812.63;1472409;87;21502;-81
2022/11/07 11:04:57;;;;;;;28.83;21.97;;;;;;;10.97;100.00;100815.84;1473449;88;21523;-81
2022/11/07 11:07:36;;;;;;;32.73;22.30;;;;;;;10.93;100.00;100809.13;1477524;88;21575;-81
2022/11/07 11:10:19;;;;;;;24.33;19.57;;;;;;;10.92;100.00;100811.45;1471932;88;22073;-82
2022/11/07 11:12:47;;;;;;;28.90;20.97;;;;;;;10.89;100.00;100805.94;1469026;88;22119;-82
2022/11/07 11:15:26;;;;;;;26.07;20.67;;;;;;;10.87;100.00;100804.41;1420971;88;21501;-82
2022/11/07 11:18:05;;;;;;;25.97;21.63;;;;;;;10.86;100.00;100800.92;1532782;90;21516;-81
2022/11/07 11:20:55;;;;;;;35.50;25.83;;;;;;;10.84;100.00;100794.43;1489682;89;21582;-80
2022/11/07 11:23:26;;;;;;;33.33;21.87;;;;;;;10.83;100.00;100790.62;1449228;90;21508;-83
2022/11/07 11:26:01;;;;;;;38.63;25.47;;;;;;;10.81;100.00;100788.09;1424802;90;21457;-81
2022/11/07 11:28:37;;;;;;;28.43;22.87;;;;;;;10.80;100.00;100779.81;1452916;89;21671;-83